createdAt,value
2023-09-30T00:02:54.081Z,5.05
2023-09-30T00:08:14.861Z,5.70
2023-09-30T00:13:35.525Z,6.28
2023-09-30T00:18:57.028Z,6.72
2023-09-30T00:24:18.227Z,7.57
2023-09-30T00:29:38.903Z,9.35
2023-09-30T00:35:00.214Z,9.38
2023-09-30T00:40:20.840Z,10.90
2023-09-30T00:45:41.746Z,10.93
2023-09-30T00:51:02.781Z,10.80
2023-09-30T00:56:24.696Z,11.85
2023-09-30T01:01:46.459Z,13.32
2023-09-30T01:07:07.101Z,12.98
2023-09-30T01:12:28.441Z,12.98
2023-09-30T01:17:49.287Z,13.45
2023-09-30T01:23:14.248Z,12.45
2023-09-30T01:28:35.795Z,13.63
2023-09-30T01:33:57.619Z,13.65
2023-09-30T01:39:18.846Z,12.95
2023-09-30T01:44:39.412Z,14.05
2023-09-30T01:50:00.548Z,13.63
2023-09-30T01:55:21.426Z,14.07
2023-09-30T02:00:42.393Z,13.20
2023-09-30T02:06:03.158Z,14.23
2023-09-30T02:11:23.804Z,14.40
2023-09-30T02:16:44.696Z,14.25
2023-09-30T02:22:06.008Z,13.68
2023-09-30T02:27:26.712Z,14.38
2023-09-30T02:32:47.768Z,13.23
2023-09-30T02:38:09.223Z,14.27
2023-09-30T02:43:30.194Z,12.55
2023-09-30T02:48:50.687Z,13.38
2023-09-30T02:54:11.291Z,12.68
2023-09-30T02:59:31.995Z,13.68
2023-09-30T03:04:53.351Z,13.43
2023-09-30T03:10:15.398Z,13.93
2023-09-30T03:15:39.823Z,13.10
2023-09-30T03:21:01.595Z,13.38
2023-09-30T03:26:22.308Z,12.70
2023-09-30T03:31:43.118Z,12.90
2023-09-30T03:37:04.655Z,12.45
2023-09-30T03:42:25.783Z,12.20
2023-09-30T03:47:47.124Z,11.95
2023-09-30T03:53:10.637Z,11.60
2023-09-30T03:58:31.597Z,12.70
2023-09-30T04:03:56.024Z,12.65
2023-09-30T04:09:17.515Z,13.18
2023-09-30T04:14:38.392Z,11.88
2023-09-30T04:19:59.354Z,12.80
2023-09-30T04:25:20.266Z,11.40
2023-09-30T04:30:42.365Z,10.35
2023-09-30T04:36:03.382Z,8.43
2023-09-30T04:41:26.370Z,7.15
2023-09-30T04:46:47.188Z,3.43
2023-09-30T04:52:09.174Z,1.33
2023-09-30T04:57:29.544Z,0.77
2023-09-30T05:02:50.259Z,0.50
2023-09-30T05:08:13.977Z,0.40
2023-09-30T05:13:37.724Z,0.50
2023-09-30T05:18:58.787Z,0.30
2023-09-30T05:24:20.378Z,0.30
2023-09-30T05:29:41.038Z,0.20
2023-09-30T05:35:04.379Z,0.20
2023-09-30T05:40:28.191Z,0.30
2023-09-30T05:45:57.571Z,0.60
2023-09-30T05:51:20.023Z,0.73
2023-09-30T05:56:44.200Z,0.50
2023-09-30T06:02:06.091Z,0.43
2023-09-30T06:07:27.374Z,0.70
2023-09-30T06:12:48.360Z,0.70
2023-09-30T06:18:10.781Z,0.60
2023-09-30T06:23:32.101Z,0.88
2023-09-30T06:28:55.265Z,0.90
2023-09-30T06:34:16.187Z,1.00
2023-09-30T06:39:37.050Z,0.85
2023-09-30T06:44:58.536Z,0.88
2023-09-30T06:50:19.248Z,0.80
2023-09-30T06:55:41.086Z,1.23
2023-09-30T07:01:01.603Z,1.20
2023-09-30T07:06:25.892Z,1.20
2023-09-30T07:11:46.846Z,1.00
2023-09-30T07:17:07.398Z,0.90
2023-09-30T07:22:43.456Z,0.90
2023-09-30T07:28:12.719Z,1.10
2023-09-30T07:33:33.998Z,1.00
2023-09-30T07:38:55.469Z,1.10
2023-09-30T07:44:16.462Z,1.23
2023-09-30T07:49:38.593Z,1.00
2023-09-30T07:54:59.731Z,1.30
2023-09-30T08:00:22.752Z,1.45
2023-09-30T08:05:43.792Z,1.80
2023-09-30T08:11:05.816Z,1.27
2023-09-30T08:16:26.893Z,1.48
2023-09-30T08:21:47.824Z,1.83
2023-09-30T08:27:08.420Z,1.45
2023-09-30T08:32:29.069Z,1.67
2023-09-30T08:37:49.625Z,1.60
2023-09-30T08:43:10.625Z,2.00
2023-09-30T08:48:33.558Z,2.73
2023-09-30T08:53:54.269Z,2.10
2023-09-30T08:59:15.852Z,1.80
2023-09-30T09:04:38.271Z,1.65
2023-09-30T09:10:14.007Z,1.95
2023-09-30T09:15:34.723Z,1.67
2023-09-30T09:21:08.449Z,1.75
2023-09-30T09:26:31.178Z,1.70
2023-09-30T09:31:51.718Z,1.67
2023-09-30T09:37:19.820Z,1.98
2023-09-30T09:42:40.969Z,1.50
2023-09-30T09:48:02.210Z,1.80
2023-09-30T09:53:22.838Z,1.65
2023-09-30T09:58:44.788Z,1.67
2023-09-30T10:04:05.842Z,1.63
2023-09-30T10:09:26.718Z,1.52
2023-09-30T10:14:47.333Z,1.60
2023-09-30T10:20:08.313Z,1.70
2023-09-30T10:25:35.548Z,1.88
2023-09-30T10:31:20.439Z,1.75
2023-09-30T10:36:42.378Z,1.33
2023-09-30T10:42:03.562Z,1.52
2023-09-30T10:47:32.190Z,1.15
2023-09-30T10:52:54.725Z,1.30
2023-09-30T10:58:15.272Z,1.77
2023-09-30T11:03:36.294Z,1.40
2023-09-30T11:09:00.099Z,1.30
2023-09-30T11:14:29.330Z,1.63
2023-09-30T11:19:50.930Z,1.48
2023-09-30T11:25:21.214Z,1.50
2023-09-30T11:31:19.435Z,1.58
2023-09-30T11:36:43.599Z,1.60
2023-09-30T11:42:05.424Z,1.23
2023-09-30T11:47:31.169Z,2.05
2023-09-30T11:52:51.973Z,1.70
2023-09-30T11:58:16.893Z,1.38
2023-09-30T12:03:41.222Z,1.40
2023-09-30T12:09:04.009Z,1.58
2023-09-30T12:14:24.937Z,1.52
2023-09-30T12:25:08.183Z,1.60
2023-09-30T12:30:29.002Z,1.50
2023-09-30T12:35:50.076Z,1.43
2023-09-30T12:41:11.029Z,1.27
2023-09-30T12:46:32.206Z,1.30
2023-09-30T12:51:53.104Z,1.20
2023-09-30T12:57:14.758Z,1.45
2023-09-30T13:02:35.923Z,1.40
2023-09-30T13:07:58.128Z,1.33
2023-09-30T13:13:18.608Z,1.30
2023-09-30T13:18:39.585Z,1.17
2023-09-30T13:24:00.103Z,1.40
2023-09-30T13:29:21.096Z,1.08
2023-09-30T13:34:42.172Z,1.33
2023-09-30T13:40:05.443Z,1.67
2023-09-30T13:45:26.399Z,1.10
2023-09-30T13:50:47.552Z,1.10
2023-09-30T13:56:08.476Z,0.98
2023-09-30T14:01:29.410Z,1.13
2023-09-30T14:06:50.207Z,1.00
2023-09-30T14:12:11.109Z,1.40
2023-09-30T14:17:32.039Z,1.20
2023-09-30T14:22:53.194Z,1.17
2023-09-30T14:28:15.070Z,1.15
2023-09-30T14:33:36.297Z,1.17
2023-09-30T14:39:08.126Z,1.17
2023-09-30T14:44:34.947Z,1.10
2023-09-30T14:49:55.754Z,0.82
2023-09-30T14:55:17.598Z,0.70
2023-09-30T15:00:38.598Z,1.27
2023-09-30T15:06:00.507Z,1.05
2023-09-30T15:11:21.542Z,1.10
2023-09-30T15:16:42.707Z,1.10
2023-09-30T15:22:03.419Z,1.05
2023-09-30T15:27:26.073Z,0.93
2023-09-30T15:32:47.458Z,1.02
2023-09-30T15:38:09.096Z,1.10
2023-09-30T15:43:37.432Z,1.25
2023-09-30T15:48:58.525Z,0.88
2023-09-30T15:54:19.755Z,1.40
2023-09-30T15:59:41.499Z,1.42
2023-09-30T16:05:03.133Z,1.58
2023-09-30T16:10:24.733Z,1.40
2023-09-30T16:15:47.259Z,1.90
2023-09-30T16:21:08.776Z,1.50
2023-09-30T16:26:30.191Z,1.40
2023-09-30T16:31:51.706Z,1.55
2023-09-30T16:37:13.318Z,2.00
2023-09-30T16:42:34.483Z,1.73
2023-09-30T16:47:56.212Z,1.80
2023-09-30T16:53:18.110Z,1.48
2023-09-30T16:58:39.110Z,1.55
2023-09-30T17:04:00.722Z,1.80
2023-09-30T17:09:21.836Z,1.92
2023-09-30T17:14:42.630Z,1.70
2023-09-30T17:20:08.613Z,3.42
2023-09-30T17:25:29.808Z,2.38
2023-09-30T17:30:50.790Z,2.03
2023-09-30T17:36:11.804Z,1.92
2023-09-30T17:41:34.948Z,1.75
2023-09-30T17:46:57.800Z,1.83
2023-09-30T17:52:18.572Z,1.73
2023-09-30T17:57:39.628Z,1.90
2023-09-30T18:03:00.337Z,1.75
2023-09-30T18:08:21.175Z,1.50
2023-09-30T18:13:42.010Z,1.80
2023-09-30T18:19:02.951Z,1.80
2023-09-30T18:24:23.622Z,1.88
2023-09-30T18:29:44.509Z,1.90
2023-09-30T18:35:06.901Z,2.58
2023-09-30T18:40:29.635Z,3.67
2023-09-30T18:45:50.470Z,3.17
2023-09-30T18:51:13.103Z,2.10
2023-09-30T18:56:33.930Z,1.90
2023-09-30T19:01:54.588Z,1.80
2023-09-30T19:07:15.314Z,1.52
2023-09-30T19:12:36.459Z,1.73
2023-09-30T19:17:57.798Z,2.03
2023-09-30T19:23:18.401Z,1.67
2023-09-30T19:28:39.553Z,2.10
2023-09-30T19:34:00.389Z,1.77
2023-09-30T19:39:21.290Z,1.70
2023-09-30T19:44:43.780Z,2.10
2023-09-30T19:50:06.640Z,1.83
2023-09-30T19:55:27.865Z,2.28
2023-09-30T20:00:49.578Z,2.15
2023-09-30T20:06:19.792Z,2.53
2023-09-30T20:11:40.554Z,2.08
2023-09-30T20:17:01.826Z,2.40
2023-09-30T20:22:22.920Z,2.05
2023-09-30T20:27:43.946Z,1.98
2023-09-30T20:33:04.437Z,2.58
2023-09-30T20:38:25.106Z,1.95
2023-09-30T20:43:46.019Z,2.10
2023-09-30T20:49:06.783Z,2.20
2023-09-30T20:54:28.295Z,1.73
2023-09-30T20:59:49.622Z,1.90
2023-09-30T21:05:10.889Z,1.73
2023-09-30T21:10:32.596Z,2.10
2023-09-30T21:15:53.448Z,2.00
2023-09-30T21:21:14.627Z,1.90
2023-09-30T21:26:35.340Z,1.73
2023-09-30T21:31:56.870Z,1.98
2023-09-30T21:37:17.673Z,1.60
2023-09-30T21:42:38.432Z,1.85
2023-09-30T21:47:59.306Z,1.85
2023-09-30T21:53:19.975Z,1.58
2023-09-30T21:58:40.550Z,1.73
2023-09-30T22:04:04.184Z,1.42
2023-09-30T22:09:27.101Z,3.97
2023-09-30T22:14:47.875Z,2.50
2023-09-30T22:20:11.626Z,1.90
2023-09-30T22:25:35.041Z,2.30
2023-09-30T22:30:56.517Z,1.92
2023-09-30T22:36:17.784Z,1.58
2023-09-30T22:41:38.392Z,2.33
2023-09-30T22:46:59.348Z,1.85
2023-09-30T22:52:20.011Z,1.77
2023-09-30T22:57:44.857Z,2.05
2023-09-30T23:03:05.777Z,2.47
2023-09-30T23:08:26.576Z,2.42
2023-09-30T23:13:47.372Z,2.05
2023-09-30T23:19:08.941Z,2.30
2023-09-30T23:24:30.786Z,2.50
2023-09-30T23:29:51.644Z,2.42
2023-09-30T23:35:15.623Z,2.00
2023-09-30T23:46:00.214Z,2.27
2023-09-30T23:51:21.304Z,2.10
2023-09-30T23:56:44.363Z,1.95
